Portada
METAR-TAF:

METAR-TAF

Aeroports :

Bejaïa, Algèria

latitud: 36-43N, longitud: 005-04E, altitud: 2 m

Observació

L'informe es va fer fa 50 minuts, a les 22:00 UTC
Vent 6 kt del Oest
Temperatura 11°C
Humitat 87%
Pressió 1021 hPa
Visibilitat 10 km o més
sense núvols per sota de 1500 mi sense presència de cumulonimbus.

METAR: DAAE 052200Z 26006KT CAVOK 11/09 Q1021

Hora: 23:50 (22:50 UTC)

Pronòstic

L'informe es va fer fa 5 hores i 50 minuts, a les 17:00 UTC
Pronòstic vàlid del 05 a les 18 UTC al 06 a les 18 UTC
Vent 5 kt del Est
Visibilitat 10 km o més
Escasses núvols a una alçada de 3000 ft
Núvols disperses a una alçada de 10000 ft
Probabilitat 30%
l' 06 a les 04 UTC al 06 a les 10 UTC
Escasses núvols a una alçada de 2600 ft, Cumulus congestus.
Evolucionant progressivament
l' 06 a les 04 UTC al 06 a les 07 UTC
Vent 10 kt del Sud/Sud-Oest

TAF: DAAE 051700Z 0518/0618 10005KT 9999 FEW030 SCT100 PROB30 0604/0610 FEW026TCU BECMG 0604/0607 20010KT

Observacions i pronòstics meteorològics de més de 4000 aeroports (METAR i TAF).

Les estacions disponibles són els punts grocs i vermells al mapa.

Posi el ratolí al punt desitjat per veure el nom de l'estació.

Feu clic per veure les observacions i els pronòstics meteorològics.

Per canviar el mapa: feu clic els botons verds amb una creu de color negre per apropar; al botó verd amb un guió per allunyar la imatge; o en les fletxes verdes per a mapes adjacents.


METAR-TAF: